sensor_id;sensor_type;location;lat;lon;timestamp;P1;durP1;ratioP1;P2;durP2;ratioP2
17604;SDS011;8921;50.964;6.800;2023-08-17T00:01:19;15.30;;;9.77;;
17604;SDS011;8921;50.964;6.800;2023-08-17T00:03:46;14.50;;;8.80;;
17604;SDS011;8921;50.964;6.800;2023-08-17T00:06:14;14.13;;;8.63;;
17604;SDS011;8921;50.964;6.800;2023-08-17T00:08:43;11.67;;;7.87;;
17604;SDS011;8921;50.964;6.800;2023-08-17T00:11:11;14.43;;;7.47;;
17604;SDS011;8921;50.964;6.800;2023-08-17T00:13:39;13.23;;;8.27;;
17604;SDS011;8921;50.964;6.800;2023-08-17T00:16:08;13.57;;;8.70;;
17604;SDS011;8921;50.964;6.800;2023-08-17T00:18:36;11.77;;;8.20;;
17604;SDS011;8921;50.964;6.800;2023-08-17T00:21:04;13.50;;;8.10;;
17604;SDS011;8921;50.964;6.800;2023-08-17T00:23:32;13.13;;;8.43;;
17604;SDS011;8921;50.964;6.800;2023-08-17T00:26:01;12.07;;;8.33;;
17604;SDS011;8921;50.964;6.800;2023-08-17T00:28:29;13.70;;;8.50;;
17604;SDS011;8921;50.964;6.800;2023-08-17T00:30:57;13.40;;;8.03;;
17604;SDS011;8921;50.964;6.800;2023-08-17T00:33:25;15.70;;;9.00;;
17604;SDS011;8921;50.964;6.800;2023-08-17T00:35:54;12.03;;;6.80;;
17604;SDS011;8921;50.964;6.800;2023-08-17T00:38:22;9.83;;;6.40;;
17604;SDS011;8921;50.964;6.800;2023-08-17T00:40:50;9.87;;;7.00;;
17604;SDS011;8921;50.964;6.800;2023-08-17T00:43:18;10.20;;;7.20;;
17604;SDS011;8921;50.964;6.800;2023-08-17T00:45:47;8.70;;;7.10;;
17604;SDS011;8921;50.964;6.800;2023-08-17T00:48:15;9.03;;;6.90;;
17604;SDS011;8921;50.964;6.800;2023-08-17T00:50:43;10.13;;;6.80;;
17604;SDS011;8921;50.964;6.800;2023-08-17T00:53:11;14.20;;;8.00;;
17604;SDS011;8921;50.964;6.800;2023-08-17T00:55:40;12.17;;;7.77;;
17604;SDS011;8921;50.964;6.800;2023-08-17T00:58:08;12.83;;;7.93;;
17604;SDS011;8921;50.964;6.800;2023-08-17T01:00:36;16.30;;;7.73;;
17604;SDS011;8921;50.964;6.800;2023-08-17T01:03:05;10.37;;;7.40;;
17604;SDS011;8921;50.964;6.800;2023-08-17T01:05:33;10.07;;;7.10;;
17604;SDS011;8921;50.964;6.800;2023-08-17T01:08:01;11.93;;;7.47;;
17604;SDS011;8921;50.964;6.800;2023-08-17T01:13:21;11.87;;;7.43;;
17604;SDS011;8921;50.964;6.800;2023-08-17T01:15:50;11.23;;;7.63;;
17604;SDS011;8921;50.964;6.800;2023-08-17T01:20:50;10.00;;;7.40;;
17604;SDS011;8921;50.964;6.800;2023-08-17T01:23:17;14.53;;;7.17;;
17604;SDS011;8921;50.964;6.800;2023-08-17T01:25:46;9.07;;;7.43;;
17604;SDS011;8921;50.964;6.800;2023-08-17T01:28:14;10.90;;;6.40;;
17604;SDS011;8921;50.964;6.800;2023-08-17T01:30:46;10.50;;;8.03;;
17604;SDS011;8921;50.964;6.800;2023-08-17T01:33:36;14.00;;;7.83;;
17604;SDS011;8921;50.964;6.800;2023-08-17T01:36:19;9.90;;;7.43;;
17604;SDS011;8921;50.964;6.800;2023-08-17T01:38:58;11.67;;;6.60;;
17604;SDS011;8921;50.964;6.800;2023-08-17T01:41:26;10.63;;;7.70;;
17604;SDS011;8921;50.964;6.800;2023-08-17T01:43:55;13.67;;;8.80;;
17604;SDS011;8921;50.964;6.800;2023-08-17T01:46:24;12.17;;;8.00;;
17604;SDS011;8921;50.964;6.800;2023-08-17T01:48:51;12.77;;;8.23;;
17604;SDS011;8921;50.964;6.800;2023-08-17T01:51:19;10.47;;;8.70;;
17604;SDS011;8921;50.964;6.800;2023-08-17T01:53:48;9.20;;;7.50;;
17604;SDS011;8921;50.964;6.800;2023-08-17T01:56:16;10.67;;;8.50;;
17604;SDS011;8921;50.964;6.800;2023-08-17T01:58:44;11.67;;;8.70;;
17604;SDS011;8921;50.964;6.800;2023-08-17T02:01:13;12.23;;;8.20;;
17604;SDS011;8921;50.964;6.800;2023-08-17T02:03:41;10.60;;;8.30;;
17604;SDS011;8921;50.964;6.800;2023-08-17T02:06:09;11.40;;;8.50;;
17604;SDS011;8921;50.964;6.800;2023-08-17T02:08:37;12.73;;;8.80;;
17604;SDS011;8921;50.964;6.800;2023-08-17T02:11:06;11.33;;;8.47;;
17604;SDS011;8921;50.964;6.800;2023-08-17T02:13:34;11.97;;;8.93;;
17604;SDS011;8921;50.964;6.800;2023-08-17T02:16:05;15.63;;;9.83;;
17604;SDS011;8921;50.964;6.800;2023-08-17T02:18:33;10.70;;;9.00;;
17604;SDS011;8921;50.964;6.800;2023-08-17T02:21:01;12.70;;;9.63;;
17604;SDS011;8921;50.964;6.800;2023-08-17T02:23:29;11.20;;;9.40;;
17604;SDS011;8921;50.964;6.800;2023-08-17T02:25:58;12.43;;;8.60;;
17604;SDS011;8921;50.964;6.800;2023-08-17T02:28:26;11.03;;;9.57;;
17604;SDS011;8921;50.964;6.800;2023-08-17T02:30:55;10.10;;;8.60;;
17604;SDS011;8921;50.964;6.800;2023-08-17T02:33:23;12.80;;;9.37;;
17604;SDS011;8921;50.964;6.800;2023-08-17T02:35:51;12.67;;;9.37;;
17604;SDS011;8921;50.964;6.800;2023-08-17T02:38:19;17.03;;;10.50;;
17604;SDS011;8921;50.964;6.800;2023-08-17T02:40:48;13.10;;;9.60;;
17604;SDS011;8921;50.964;6.800;2023-08-17T02:43:16;10.20;;;9.03;;
17604;SDS011;8921;50.964;6.800;2023-08-17T02:45:44;13.23;;;9.30;;
17604;SDS011;8921;50.964;6.800;2023-08-17T02:48:12;13.40;;;8.93;;
17604;SDS011;8921;50.964;6.800;2023-08-17T02:50:40;12.63;;;9.30;;
17604;SDS011;8921;50.964;6.800;2023-08-17T02:53:09;14.30;;;10.43;;
17604;SDS011;8921;50.964;6.800;2023-08-17T02:55:37;11.53;;;8.83;;
17604;SDS011;8921;50.964;6.800;2023-08-17T02:58:05;14.53;;;9.10;;
17604;SDS011;8921;50.964;6.800;2023-08-17T03:00:33;16.80;;;10.23;;
17604;SDS011;8921;50.964;6.800;2023-08-17T03:03:02;10.03;;;8.30;;
17604;SDS011;8921;50.964;6.800;2023-08-17T03:05:30;11.80;;;9.03;;
17604;SDS011;8921;50.964;6.800;2023-08-17T03:07:58;18.13;;;10.50;;
17604;SDS011;8921;50.964;6.800;2023-08-17T03:10:26;13.93;;;9.83;;
17604;SDS011;8921;50.964;6.800;2023-08-17T03:12:55;11.97;;;9.50;;
17604;SDS011;8921;50.964;6.800;2023-08-17T03:15:23;12.70;;;9.40;;
17604;SDS011;8921;50.964;6.800;2023-08-17T03:17:51;12.27;;;9.20;;
17604;SDS011;8921;50.964;6.800;2023-08-17T03:20:19;11.90;;;10.23;;
17604;SDS011;8921;50.964;6.800;2023-08-17T03:22:48;12.37;;;10.20;;
17604;SDS011;8921;50.964;6.800;2023-08-17T03:25:16;13.10;;;11.10;;
17604;SDS011;8921;50.964;6.800;2023-08-17T03:27:45;14.63;;;10.90;;
17604;SDS011;8921;50.964;6.800;2023-08-17T03:30:12;15.20;;;10.40;;
17604;SDS011;8921;50.964;6.800;2023-08-17T03:32:41;11.47;;;9.40;;
17604;SDS011;8921;50.964;6.800;2023-08-17T03:35:09;15.20;;;10.87;;
17604;SDS011;8921;50.964;6.800;2023-08-17T03:37:37;11.90;;;9.40;;
17604;SDS011;8921;50.964;6.800;2023-08-17T03:40:06;12.10;;;10.40;;
17604;SDS011;8921;50.964;6.800;2023-08-17T03:42:34;11.53;;;9.60;;
17604;SDS011;8921;50.964;6.800;2023-08-17T03:45:03;15.23;;;10.30;;
17604;SDS011;8921;50.964;6.800;2023-08-17T03:47:31;11.83;;;9.30;;
17604;SDS011;8921;50.964;6.800;2023-08-17T03:49:59;11.63;;;8.90;;
17604;SDS011;8921;50.964;6.800;2023-08-17T03:54:49;12.57;;;9.60;;
17604;SDS011;8921;50.964;6.800;2023-08-17T03:57:17;11.30;;;8.73;;
17604;SDS011;8921;50.964;6.800;2023-08-17T03:59:45;13.23;;;8.77;;
17604;SDS011;8921;50.964;6.800;2023-08-17T04:02:14;15.40;;;11.83;;
17604;SDS011;8921;50.964;6.800;2023-08-17T04:04:42;13.10;;;9.67;;
17604;SDS011;8921;50.964;6.800;2023-08-17T04:07:10;10.53;;;8.53;;
17604;SDS011;8921;50.964;6.800;2023-08-17T04:09:43;11.90;;;9.40;;
17604;SDS011;8921;50.964;6.800;2023-08-17T04:12:07;12.17;;;8.77;;
17604;SDS011;8921;50.964;6.800;2023-08-17T04:14:36;11.97;;;9.00;;
17604;SDS011;8921;50.964;6.800;2023-08-17T04:17:04;10.50;;;9.20;;
17604;SDS011;8921;50.964;6.800;2023-08-17T04:19:32;11.70;;;8.93;;
17604;SDS011;8921;50.964;6.800;2023-08-17T04:22:00;12.00;;;9.63;;
17604;SDS011;8921;50.964;6.800;2023-08-17T04:24:29;13.77;;;9.77;;
17604;SDS011;8921;50.964;6.800;2023-08-17T04:26:57;14.43;;;8.20;;
17604;SDS011;8921;50.964;6.800;2023-08-17T04:29:25;12.07;;;8.77;;
17604;SDS011;8921;50.964;6.800;2023-08-17T04:31:54;11.20;;;8.20;;
17604;SDS011;8921;50.964;6.800;2023-08-17T04:34:22;13.67;;;9.17;;
17604;SDS011;8921;50.964;6.800;2023-08-17T04:36:50;14.27;;;9.60;;
17604;SDS011;8921;50.964;6.800;2023-08-17T04:39:18;15.00;;;9.33;;
17604;SDS011;8921;50.964;6.800;2023-08-17T04:41:47;11.77;;;8.67;;
17604;SDS011;8921;50.964;6.800;2023-08-17T04:44:15;15.30;;;8.50;;
17604;SDS011;8921;50.964;6.800;2023-08-17T04:46:43;15.30;;;10.13;;
17604;SDS011;8921;50.964;6.800;2023-08-17T04:49:11;11.70;;;8.80;;
17604;SDS011;8921;50.964;6.800;2023-08-17T04:51:40;11.80;;;8.50;;
17604;SDS011;8921;50.964;6.800;2023-08-17T04:54:08;12.90;;;10.03;;
17604;SDS011;8921;50.964;6.800;2023-08-17T04:56:36;10.50;;;9.10;;
17604;SDS011;8921;50.964;6.800;2023-08-17T04:59:05;14.43;;;9.50;;
17604;SDS011;8921;50.964;6.800;2023-08-17T05:01:33;10.40;;;8.20;;
17604;SDS011;8921;50.964;6.800;2023-08-17T05:04:01;14.60;;;9.83;;
17604;SDS011;8921;50.964;6.800;2023-08-17T05:06:30;12.00;;;8.50;;
17604;SDS011;8921;50.964;6.800;2023-08-17T05:08:58;12.57;;;8.90;;
17604;SDS011;8921;50.964;6.800;2023-08-17T05:11:26;14.27;;;9.57;;
17604;SDS011;8921;50.964;6.800;2023-08-17T05:13:54;13.80;;;8.67;;
17604;SDS011;8921;50.964;6.800;2023-08-17T05:16:23;14.47;;;8.53;;
17604;SDS011;8921;50.964;6.800;2023-08-17T05:18:51;15.50;;;10.80;;
17604;SDS011;8921;50.964;6.800;2023-08-17T05:21:19;13.53;;;8.33;;
17604;SDS011;8921;50.964;6.800;2023-08-17T05:23:47;15.30;;;8.90;;
17604;SDS011;8921;50.964;6.800;2023-08-17T05:26:16;12.07;;;8.60;;
17604;SDS011;8921;50.964;6.800;2023-08-17T05:28:44;12.53;;;8.77;;
17604;SDS011;8921;50.964;6.800;2023-08-17T05:31:12;15.07;;;8.77;;
17604;SDS011;8921;50.964;6.800;2023-08-17T05:33:41;19.70;;;9.20;;
17604;SDS011;8921;50.964;6.800;2023-08-17T05:36:09;12.60;;;8.30;;
17604;SDS011;8921;50.964;6.800;2023-08-17T05:38:37;13.80;;;8.57;;
17604;SDS011;8921;50.964;6.800;2023-08-17T05:41:06;10.30;;;8.90;;
17604;SDS011;8921;50.964;6.800;2023-08-17T05:43:34;13.23;;;8.17;;
17604;SDS011;8921;50.964;6.800;2023-08-17T05:46:02;12.60;;;9.30;;
17604;SDS011;8921;50.964;6.800;2023-08-17T05:48:32;13.03;;;8.10;;
17604;SDS011;8921;50.964;6.800;2023-08-17T05:50:59;13.00;;;8.07;;
17604;SDS011;8921;50.964;6.800;2023-08-17T05:53:27;14.23;;;7.73;;
17604;SDS011;8921;50.964;6.800;2023-08-17T05:55:55;9.37;;;6.80;;
17604;SDS011;8921;50.964;6.800;2023-08-17T05:58:24;13.13;;;8.50;;
17604;SDS011;8921;50.964;6.800;2023-08-17T06:00:52;12.60;;;8.10;;
17604;SDS011;8921;50.964;6.800;2023-08-17T06:03:20;10.10;;;7.80;;
17604;SDS011;8921;50.964;6.800;2023-08-17T06:05:51;10.27;;;7.53;;
17604;SDS011;8921;50.964;6.800;2023-08-17T06:08:17;14.77;;;9.37;;
17604;SDS011;8921;50.964;6.800;2023-08-17T06:10:45;11.17;;;8.83;;
17604;SDS011;8921;50.964;6.800;2023-08-17T06:13:13;14.60;;;10.37;;
17604;SDS011;8921;50.964;6.800;2023-08-17T06:15:42;12.87;;;8.10;;
17604;SDS011;8921;50.964;6.800;2023-08-17T06:18:10;12.50;;;7.93;;
17604;SDS011;8921;50.964;6.800;2023-08-17T06:20:38;10.53;;;7.50;;
17604;SDS011;8921;50.964;6.800;2023-08-17T06:23:06;12.23;;;9.10;;
17604;SDS011;8921;50.964;6.800;2023-08-17T06:25:35;13.20;;;8.93;;
17604;SDS011;8921;50.964;6.800;2023-08-17T06:28:03;16.33;;;8.80;;
17604;SDS011;8921;50.964;6.800;2023-08-17T06:30:31;13.43;;;9.10;;
17604;SDS011;8921;50.964;6.800;2023-08-17T06:33:00;12.03;;;8.83;;
17604;SDS011;8921;50.964;6.800;2023-08-17T06:35:28;14.23;;;9.47;;
17604;SDS011;8921;50.964;6.800;2023-08-17T06:37:56;13.57;;;9.53;;
17604;SDS011;8921;50.964;6.800;2023-08-17T06:40:24;10.90;;;7.67;;
17604;SDS011;8921;50.964;6.800;2023-08-17T06:42:53;15.23;;;8.90;;
17604;SDS011;8921;50.964;6.800;2023-08-17T06:45:21;13.10;;;8.50;;
17604;SDS011;8921;50.964;6.800;2023-08-17T06:47:49;13.30;;;8.73;;
17604;SDS011;8921;50.964;6.800;2023-08-17T06:50:18;12.53;;;8.83;;
17604;SDS011;8921;50.964;6.800;2023-08-17T06:52:46;13.03;;;8.47;;
17604;SDS011;8921;50.964;6.800;2023-08-17T06:55:14;12.93;;;8.33;;
17604;SDS011;8921;50.964;6.800;2023-08-17T06:57:42;11.27;;;7.57;;
17604;SDS011;8921;50.964;6.800;2023-08-17T07:00:11;12.67;;;7.97;;
17604;SDS011;8921;50.964;6.800;2023-08-17T07:02:39;17.93;;;8.60;;
17604;SDS011;8921;50.964;6.800;2023-08-17T07:05:07;12.13;;;8.83;;
17604;SDS011;8921;50.964;6.800;2023-08-17T07:07:36;11.27;;;9.40;;
17604;SDS011;8921;50.964;6.800;2023-08-17T07:10:04;12.00;;;7.47;;
17604;SDS011;8921;50.964;6.800;2023-08-17T07:12:32;10.73;;;8.60;;
17604;SDS011;8921;50.964;6.800;2023-08-17T07:15:01;13.63;;;8.90;;
17604;SDS011;8921;50.964;6.800;2023-08-17T07:17:29;18.63;;;8.70;;
17604;SDS011;8921;50.964;6.800;2023-08-17T07:19:57;10.67;;;8.57;;
17604;SDS011;8921;50.964;6.800;2023-08-17T07:22:26;13.17;;;7.23;;
17604;SDS011;8921;50.964;6.800;2023-08-17T07:24:54;13.20;;;8.67;;
17604;SDS011;8921;50.964;6.800;2023-08-17T07:27:22;10.83;;;7.80;;
17604;SDS011;8921;50.964;6.800;2023-08-17T07:29:50;14.83;;;9.83;;
17604;SDS011;8921;50.964;6.800;2023-08-17T07:32:19;17.70;;;10.50;;
17604;SDS011;8921;50.964;6.800;2023-08-17T07:34:47;15.33;;;9.73;;
17604;SDS011;8921;50.964;6.800;2023-08-17T07:37:15;18.43;;;12.27;;
17604;SDS011;8921;50.964;6.800;2023-08-17T07:39:43;14.30;;;9.80;;
17604;SDS011;8921;50.964;6.800;2023-08-17T07:42:12;12.27;;;9.67;;
17604;SDS011;8921;50.964;6.800;2023-08-17T07:44:40;17.93;;;12.90;;
17604;SDS011;8921;50.964;6.800;2023-08-17T07:47:08;15.73;;;10.83;;
17604;SDS011;8921;50.964;6.800;2023-08-17T07:49:37;13.30;;;9.70;;
17604;SDS011;8921;50.964;6.800;2023-08-17T07:52:05;15.23;;;9.90;;
17604;SDS011;8921;50.964;6.800;2023-08-17T07:54:33;13.70;;;8.60;;
17604;SDS011;8921;50.964;6.800;2023-08-17T07:57:02;25.03;;;10.40;;
17604;SDS011;8921;50.964;6.800;2023-08-17T07:59:30;15.30;;;10.37;;
17604;SDS011;8921;50.964;6.800;2023-08-17T08:01:58;19.93;;;13.27;;
17604;SDS011;8921;50.964;6.800;2023-08-17T08:04:26;22.77;;;17.07;;
17604;SDS011;8921;50.964;6.800;2023-08-17T08:06:55;12.17;;;8.57;;
17604;SDS011;8921;50.964;6.800;2023-08-17T08:09:23;11.10;;;8.63;;
17604;SDS011;8921;50.964;6.800;2023-08-17T08:11:51;18.80;;;9.50;;
17604;SDS011;8921;50.964;6.800;2023-08-17T08:14:20;13.37;;;9.50;;
17604;SDS011;8921;50.964;6.800;2023-08-17T08:16:48;13.23;;;9.80;;
17604;SDS011;8921;50.964;6.800;2023-08-17T08:19:16;14.10;;;9.50;;
17604;SDS011;8921;50.964;6.800;2023-08-17T08:21:44;13.70;;;9.90;;
17604;SDS011;8921;50.964;6.800;2023-08-17T08:24:13;14.63;;;10.70;;
17604;SDS011;8921;50.964;6.800;2023-08-17T08:26:41;20.67;;;9.33;;
17604;SDS011;8921;50.964;6.800;2023-08-17T08:29:09;16.57;;;11.03;;
17604;SDS011;8921;50.964;6.800;2023-08-17T08:31:37;15.83;;;10.73;;
17604;SDS011;8921;50.964;6.800;2023-08-17T08:34:06;14.30;;;10.00;;
17604;SDS011;8921;50.964;6.800;2023-08-17T08:36:34;21.90;;;14.23;;
17604;SDS011;8921;50.964;6.800;2023-08-17T08:39:02;13.97;;;10.47;;
17604;SDS011;8921;50.964;6.800;2023-08-17T08:41:31;16.27;;;11.20;;
17604;SDS011;8921;50.964;6.800;2023-08-17T08:43:59;18.83;;;12.60;;
17604;SDS011;8921;50.964;6.800;2023-08-17T08:46:27;19.53;;;12.87;;
17604;SDS011;8921;50.964;6.800;2023-08-17T08:48:56;17.70;;;12.37;;
17604;SDS011;8921;50.964;6.800;2023-08-17T08:51:27;19.60;;;11.30;;
17604;SDS011;8921;50.964;6.800;2023-08-17T08:54:00;21.67;;;11.87;;
17604;SDS011;8921;50.964;6.800;2023-08-17T08:56:26;18.50;;;11.20;;
17604;SDS011;8921;50.964;6.800;2023-08-17T08:58:54;16.20;;;11.53;;
17604;SDS011;8921;50.964;6.800;2023-08-17T09:01:22;22.63;;;12.10;;
17604;SDS011;8921;50.964;6.800;2023-08-17T09:03:50;25.80;;;14.40;;
17604;SDS011;8921;50.964;6.800;2023-08-17T09:06:19;20.83;;;12.63;;
17604;SDS011;8921;50.964;6.800;2023-08-17T09:08:47;17.00;;;10.87;;
17604;SDS011;8921;50.964;6.800;2023-08-17T09:11:15;19.27;;;11.83;;
17604;SDS011;8921;50.964;6.800;2023-08-17T09:13:44;20.03;;;12.70;;
17604;SDS011;8921;50.964;6.800;2023-08-17T09:16:12;17.73;;;12.80;;
17604;SDS011;8921;50.964;6.800;2023-08-17T09:18:40;23.17;;;15.00;;
17604;SDS011;8921;50.964;6.800;2023-08-17T09:21:08;22.03;;;13.57;;
17604;SDS011;8921;50.964;6.800;2023-08-17T09:23:38;20.60;;;13.30;;
17604;SDS011;8921;50.964;6.800;2023-08-17T09:26:07;18.33;;;12.50;;
17604;SDS011;8921;50.964;6.800;2023-08-17T09:28:33;22.37;;;13.90;;
17604;SDS011;8921;50.964;6.800;2023-08-17T09:31:02;21.93;;;14.30;;
17604;SDS011;8921;50.964;6.800;2023-08-17T09:33:30;21.10;;;15.10;;
17604;SDS011;8921;50.964;6.800;2023-08-17T09:35:59;23.47;;;14.67;;
17604;SDS011;8921;50.964;6.800;2023-08-17T09:38:27;23.47;;;13.20;;
17604;SDS011;8921;50.964;6.800;2023-08-17T09:40:55;21.07;;;13.30;;
17604;SDS011;8921;50.964;6.800;2023-08-17T09:43:23;20.00;;;13.20;;
17604;SDS011;8921;50.964;6.800;2023-08-17T09:45:51;20.10;;;13.83;;
17604;SDS011;8921;50.964;6.800;2023-08-17T09:48:20;18.53;;;13.40;;
17604;SDS011;8921;50.964;6.800;2023-08-17T09:50:48;20.90;;;14.53;;
17604;SDS011;8921;50.964;6.800;2023-08-17T09:53:17;19.67;;;13.90;;
17604;SDS011;8921;50.964;6.800;2023-08-17T09:55:45;23.67;;;13.43;;
17604;SDS011;8921;50.964;6.800;2023-08-17T09:58:13;20.27;;;12.60;;
17604;SDS011;8921;50.964;6.800;2023-08-17T10:00:43;22.27;;;14.87;;
17604;SDS011;8921;50.964;6.800;2023-08-17T10:03:09;25.97;;;14.60;;
17604;SDS011;8921;50.964;6.800;2023-08-17T10:05:38;17.67;;;12.70;;
17604;SDS011;8921;50.964;6.800;2023-08-17T10:08:06;23.50;;;15.90;;
17604;SDS011;8921;50.964;6.800;2023-08-17T10:10:35;23.73;;;14.87;;
17604;SDS011;8921;50.964;6.800;2023-08-17T10:13:12;21.33;;;15.00;;
17604;SDS011;8921;50.964;6.800;2023-08-17T10:15:37;18.37;;;13.50;;
17604;SDS011;8921;50.964;6.800;2023-08-17T10:21:00;19.17;;;13.40;;
17604;SDS011;8921;50.964;6.800;2023-08-17T10:23:26;18.77;;;12.13;;
17604;SDS011;8921;50.964;6.800;2023-08-17T10:25:54;20.50;;;13.70;;
17604;SDS011;8921;50.964;6.800;2023-08-17T10:28:23;18.70;;;13.23;;
17604;SDS011;8921;50.964;6.800;2023-08-17T10:30:51;19.30;;;13.60;;
17604;SDS011;8921;50.964;6.800;2023-08-17T10:33:19;20.10;;;13.60;;
17604;SDS011;8921;50.964;6.800;2023-08-17T10:35:48;23.80;;;14.40;;
17604;SDS011;8921;50.964;6.800;2023-08-17T10:38:16;23.43;;;14.40;;
17604;SDS011;8921;50.964;6.800;2023-08-17T10:40:44;21.03;;;13.53;;
17604;SDS011;8921;50.964;6.800;2023-08-17T10:43:27;19.90;;;13.70;;
17604;SDS011;8921;50.964;6.800;2023-08-17T10:45:52;21.03;;;13.63;;
17604;SDS011;8921;50.964;6.800;2023-08-17T10:48:27;19.47;;;13.80;;
17604;SDS011;8921;50.964;6.800;2023-08-17T10:51:01;20.60;;;14.30;;
17604;SDS011;8921;50.964;6.800;2023-08-17T10:53:33;20.60;;;14.10;;
17604;SDS011;8921;50.964;6.800;2023-08-17T10:55:57;18.63;;;14.40;;
17604;SDS011;8921;50.964;6.800;2023-08-17T10:58:25;27.33;;;15.27;;
17604;SDS011;8921;50.964;6.800;2023-08-17T11:00:54;22.77;;;15.00;;
17604;SDS011;8921;50.964;6.800;2023-08-17T11:03:22;22.80;;;15.80;;
17604;SDS011;8921;50.964;6.800;2023-08-17T11:05:51;23.53;;;14.33;;
17604;SDS011;8921;50.964;6.800;2023-08-17T11:08:34;22.10;;;14.60;;
17604;SDS011;8921;50.964;6.800;2023-08-17T11:11:11;29.60;;;16.00;;
17604;SDS011;8921;50.964;6.800;2023-08-17T11:13:40;30.33;;;16.33;;
17604;SDS011;8921;50.964;6.800;2023-08-17T11:16:08;21.20;;;15.30;;
17604;SDS011;8921;50.964;6.800;2023-08-17T11:18:36;31.23;;;16.50;;
17604;SDS011;8921;50.964;6.800;2023-08-17T11:21:05;21.80;;;16.33;;
17604;SDS011;8921;50.964;6.800;2023-08-17T11:23:33;23.10;;;14.07;;
17604;SDS011;8921;50.964;6.800;2023-08-17T11:26:01;20.63;;;14.30;;
17604;SDS011;8921;50.964;6.800;2023-08-17T11:28:29;24.33;;;13.43;;
17604;SDS011;8921;50.964;6.800;2023-08-17T11:31:00;22.10;;;14.87;;
17604;SDS011;8921;50.964;6.800;2023-08-17T11:33:28;22.47;;;14.03;;
17604;SDS011;8921;50.964;6.800;2023-08-17T11:38:25;24.30;;;15.87;;
17604;SDS011;8921;50.964;6.800;2023-08-17T11:40:53;22.70;;;15.13;;
17604;SDS011;8921;50.964;6.800;2023-08-17T11:43:21;21.07;;;14.17;;
17604;SDS011;8921;50.964;6.800;2023-08-17T11:45:50;15.37;;;11.93;;
17604;SDS011;8921;50.964;6.800;2023-08-17T11:48:18;20.20;;;12.90;;
17604;SDS011;8921;50.964;6.800;2023-08-17T11:50:46;17.23;;;12.47;;
17604;SDS011;8921;50.964;6.800;2023-08-17T11:53:14;19.55;;;12.20;;
17604;SDS011;8921;50.964;6.800;2023-08-17T11:55:43;16.70;;;12.23;;
17604;SDS011;8921;50.964;6.800;2023-08-17T11:58:11;22.07;;;12.37;;
17604;SDS011;8921;50.964;6.800;2023-08-17T12:00:40;17.80;;;11.60;;
17604;SDS011;8921;50.964;6.800;2023-08-17T12:03:07;16.13;;;12.63;;
17604;SDS011;8921;50.964;6.800;2023-08-17T12:05:36;17.73;;;10.47;;
17604;SDS011;8921;50.964;6.800;2023-08-17T12:08:04;20.80;;;13.70;;
17604;SDS011;8921;50.964;6.800;2023-08-17T12:10:32;19.60;;;13.80;;
17604;SDS011;8921;50.964;6.800;2023-08-17T12:13:01;19.57;;;11.87;;
17604;SDS011;8921;50.964;6.800;2023-08-17T12:15:30;24.50;;;13.73;;
17604;SDS011;8921;50.964;6.800;2023-08-17T12:18:02;21.13;;;12.70;;
17604;SDS011;8921;50.964;6.800;2023-08-17T12:20:28;24.60;;;14.60;;
17604;SDS011;8921;50.964;6.800;2023-08-17T12:22:57;20.00;;;12.00;;
17604;SDS011;8921;50.964;6.800;2023-08-17T12:25:25;20.37;;;13.63;;
17604;SDS011;8921;50.964;6.800;2023-08-17T12:27:53;19.73;;;11.20;;
17604;SDS011;8921;50.964;6.800;2023-08-17T12:30:28;20.87;;;14.83;;
17604;SDS011;8921;50.964;6.800;2023-08-17T12:32:55;22.70;;;14.00;;
17604;SDS011;8921;50.964;6.800;2023-08-17T12:35:24;22.60;;;14.60;;
17604;SDS011;8921;50.964;6.800;2023-08-17T12:37:52;21.77;;;14.40;;
17604;SDS011;8921;50.964;6.800;2023-08-17T12:40:21;18.10;;;12.00;;
17604;SDS011;8921;50.964;6.800;2023-08-17T12:42:49;21.37;;;12.50;;
17604;SDS011;8921;50.964;6.800;2023-08-17T12:45:17;22.70;;;12.97;;
17604;SDS011;8921;50.964;6.800;2023-08-17T12:47:45;19.87;;;13.57;;
17604;SDS011;8921;50.964;6.800;2023-08-17T12:50:14;20.13;;;14.27;;
17604;SDS011;8921;50.964;6.800;2023-08-17T12:52:42;20.60;;;13.13;;
17604;SDS011;8921;50.964;6.800;2023-08-17T12:55:10;21.00;;;13.77;;
17604;SDS011;8921;50.964;6.800;2023-08-17T12:57:38;22.27;;;13.90;;
17604;SDS011;8921;50.964;6.800;2023-08-17T13:00:07;18.50;;;13.70;;
17604;SDS011;8921;50.964;6.800;2023-08-17T13:02:35;19.60;;;13.53;;
17604;SDS011;8921;50.964;6.800;2023-08-17T13:05:03;20.63;;;13.97;;
17604;SDS011;8921;50.964;6.800;2023-08-17T13:07:32;20.00;;;13.80;;
17604;SDS011;8921;50.964;6.800;2023-08-17T13:10:00;22.77;;;12.87;;
17604;SDS011;8921;50.964;6.800;2023-08-17T13:12:28;21.27;;;12.90;;
17604;SDS011;8921;50.964;6.800;2023-08-17T13:14:57;21.77;;;14.00;;
17604;SDS011;8921;50.964;6.800;2023-08-17T13:17:25;23.00;;;12.93;;
17604;SDS011;8921;50.964;6.800;2023-08-17T13:19:53;20.77;;;13.00;;
17604;SDS011;8921;50.964;6.800;2023-08-17T13:22:21;20.23;;;14.53;;
17604;SDS011;8921;50.964;6.800;2023-08-17T13:24:50;19.43;;;14.07;;
17604;SDS011;8921;50.964;6.800;2023-08-17T13:27:18;18.27;;;13.20;;
17604;SDS011;8921;50.964;6.800;2023-08-17T13:29:46;22.87;;;14.83;;
17604;SDS011;8921;50.964;6.800;2023-08-17T13:32:15;19.63;;;13.67;;
17604;SDS011;8921;50.964;6.800;2023-08-17T13:34:43;22.73;;;13.63;;
17604;SDS011;8921;50.964;6.800;2023-08-17T13:37:11;20.30;;;15.23;;
17604;SDS011;8921;50.964;6.800;2023-08-17T13:39:39;19.03;;;13.43;;
17604;SDS011;8921;50.964;6.800;2023-08-17T13:42:08;19.43;;;13.57;;
17604;SDS011;8921;50.964;6.800;2023-08-17T13:44:36;18.93;;;13.20;;
17604;SDS011;8921;50.964;6.800;2023-08-17T13:47:04;18.70;;;14.80;;
17604;SDS011;8921;50.964;6.800;2023-08-17T13:49:33;22.60;;;14.40;;
17604;SDS011;8921;50.964;6.800;2023-08-17T13:52:01;24.93;;;16.10;;
17604;SDS011;8921;50.964;6.800;2023-08-17T13:54:29;24.37;;;15.93;;
17604;SDS011;8921;50.964;6.800;2023-08-17T13:56:57;21.50;;;14.67;;
17604;SDS011;8921;50.964;6.800;2023-08-17T13:59:26;23.93;;;15.57;;
17604;SDS011;8921;50.964;6.800;2023-08-17T14:01:54;23.00;;;16.30;;
17604;SDS011;8921;50.964;6.800;2023-08-17T14:04:22;22.53;;;15.23;;
17604;SDS011;8921;50.964;6.800;2023-08-17T14:06:51;24.83;;;15.13;;
17604;SDS011;8921;50.964;6.800;2023-08-17T14:09:19;21.00;;;14.63;;
17604;SDS011;8921;50.964;6.800;2023-08-17T14:11:47;21.57;;;15.23;;
17604;SDS011;8921;50.964;6.800;2023-08-17T14:14:15;24.13;;;15.33;;
17604;SDS011;8921;50.964;6.800;2023-08-17T14:16:44;21.13;;;12.83;;
17604;SDS011;8921;50.964;6.800;2023-08-17T14:19:12;21.80;;;15.73;;
17604;SDS011;8921;50.964;6.800;2023-08-17T14:21:40;24.93;;;15.10;;
17604;SDS011;8921;50.964;6.800;2023-08-17T14:24:09;18.60;;;15.37;;
17604;SDS011;8921;50.964;6.800;2023-08-17T14:26:37;18.70;;;14.33;;
17604;SDS011;8921;50.964;6.800;2023-08-17T14:29:05;25.40;;;15.60;;
17604;SDS011;8921;50.964;6.800;2023-08-17T14:31:33;23.23;;;16.77;;
17604;SDS011;8921;50.964;6.800;2023-08-17T14:34:02;25.87;;;18.40;;
17604;SDS011;8921;50.964;6.800;2023-08-17T14:36:30;27.43;;;17.00;;
17604;SDS011;8921;50.964;6.800;2023-08-17T14:38:58;22.03;;;17.20;;
17604;SDS011;8921;50.964;6.800;2023-08-17T14:41:27;23.20;;;16.17;;
17604;SDS011;8921;50.964;6.800;2023-08-17T14:43:55;21.70;;;16.30;;
17604;SDS011;8921;50.964;6.800;2023-08-17T14:46:24;22.10;;;14.60;;
17604;SDS011;8921;50.964;6.800;2023-08-17T14:48:52;20.17;;;14.20;;
17604;SDS011;8921;50.964;6.800;2023-08-17T14:51:20;19.87;;;15.23;;
17604;SDS011;8921;50.964;6.800;2023-08-17T14:53:48;20.80;;;14.87;;
17604;SDS011;8921;50.964;6.800;2023-08-17T14:56:16;19.60;;;14.80;;
17604;SDS011;8921;50.964;6.800;2023-08-17T14:58:45;18.63;;;12.87;;
17604;SDS011;8921;50.964;6.800;2023-08-17T15:01:13;16.87;;;11.53;;